sensor_id;sensor_type;location;lat;lon;timestamp;P1;durP1;ratioP1;P2;durP2;ratioP2
81834;SDS011;71272;52.166;4.498;2023-09-19T00:00:45;7.95;;;1.60;;
81834;SDS011;71272;52.166;4.498;2023-09-19T00:03:17;7.97;;;1.88;;
81834;SDS011;71272;52.166;4.498;2023-09-19T00:05:43;6.22;;;1.63;;
81834;SDS011;71272;52.166;4.498;2023-09-19T00:08:13;6.18;;;1.60;;
81834;SDS011;71272;52.166;4.498;2023-09-19T00:10:38;5.40;;;1.38;;
81834;SDS011;71272;52.166;4.498;2023-09-19T00:13:06;6.18;;;1.23;;
81834;SDS011;71272;52.166;4.498;2023-09-19T00:15:39;6.07;;;0.98;;
81834;SDS011;71272;52.166;4.498;2023-09-19T00:18:07;7.63;;;1.30;;
81834;SDS011;71272;52.166;4.498;2023-09-19T00:20:35;8.02;;;1.40;;
81834;SDS011;71272;52.166;4.498;2023-09-19T00:23:01;7.43;;;1.75;;
81834;SDS011;71272;52.166;4.498;2023-09-19T00:25:34;9.68;;;1.85;;
81834;SDS011;71272;52.166;4.498;2023-09-19T00:28:01;4.70;;;1.42;;
81834;SDS011;71272;52.166;4.498;2023-09-19T00:30:27;5.40;;;1.50;;
81834;SDS011;71272;52.166;4.498;2023-09-19T00:32:52;11.50;;;1.80;;
81834;SDS011;71272;52.166;4.498;2023-09-19T00:35:18;10.43;;;1.30;;
81834;SDS011;71272;52.166;4.498;2023-09-19T00:37:47;8.23;;;1.88;;
81834;SDS011;71272;52.166;4.498;2023-09-19T00:40:12;5.38;;;1.38;;
81834;SDS011;71272;52.166;4.498;2023-09-19T00:42:40;6.25;;;1.30;;
81834;SDS011;71272;52.166;4.498;2023-09-19T00:45:08;7.40;;;1.77;;
81834;SDS011;71272;52.166;4.498;2023-09-19T00:47:38;5.72;;;1.20;;
81834;SDS011;71272;52.166;4.498;2023-09-19T00:50:10;6.15;;;1.35;;
81834;SDS011;71272;52.166;4.498;2023-09-19T00:52:39;5.85;;;1.05;;
81834;SDS011;71272;52.166;4.498;2023-09-19T00:55:08;8.70;;;2.13;;
81834;SDS011;71272;52.166;4.498;2023-09-19T00:57:38;6.55;;;1.20;;
81834;SDS011;71272;52.166;4.498;2023-09-19T01:00:08;4.40;;;1.60;;
81834;SDS011;71272;52.166;4.498;2023-09-19T01:02:41;5.28;;;1.30;;
81834;SDS011;71272;52.166;4.498;2023-09-19T01:05:08;6.57;;;1.40;;
81834;SDS011;71272;52.166;4.498;2023-09-19T01:07:36;6.53;;;1.42;;
81834;SDS011;71272;52.166;4.498;2023-09-19T01:10:05;12.45;;;1.95;;
81834;SDS011;71272;52.166;4.498;2023-09-19T01:12:47;10.57;;;1.55;;
81834;SDS011;71272;52.166;4.498;2023-09-19T01:15:40;12.63;;;1.90;;
81834;SDS011;71272;52.166;4.498;2023-09-19T01:18:34;9.50;;;1.50;;
81834;SDS011;71272;52.166;4.498;2023-09-19T01:21:08;14.75;;;2.15;;
81834;SDS011;71272;52.166;4.498;2023-09-19T01:32:11;9.00;;;1.48;;
81834;SDS011;71272;52.166;4.498;2023-09-19T01:37:12;6.97;;;1.33;;
81834;SDS011;71272;52.166;4.498;2023-09-19T01:39:39;6.97;;;1.60;;
81834;SDS011;71272;52.166;4.498;2023-09-19T01:47:34;11.77;;;1.60;;
81834;SDS011;71272;52.166;4.498;2023-09-19T01:50:11;11.00;;;1.65;;
81834;SDS011;71272;52.166;4.498;2023-09-19T01:52:52;16.55;;;1.50;;
81834;SDS011;71272;52.166;4.498;2023-09-19T01:55:22;7.60;;;1.45;;
81834;SDS011;71272;52.166;4.498;2023-09-19T01:57:54;6.22;;;1.33;;
81834;SDS011;71272;52.166;4.498;2023-09-19T02:00:26;10.95;;;1.60;;
81834;SDS011;71272;52.166;4.498;2023-09-19T02:02:54;7.72;;;2.35;;
81834;SDS011;71272;52.166;4.498;2023-09-19T02:05:24;8.73;;;1.73;;
81834;SDS011;71272;52.166;4.498;2023-09-19T02:07:52;10.93;;;1.83;;
81834;SDS011;71272;52.166;4.498;2023-09-19T02:10:21;8.70;;;1.88;;
81834;SDS011;71272;52.166;4.498;2023-09-19T02:12:46;8.80;;;1.70;;
81834;SDS011;71272;52.166;4.498;2023-09-19T02:15:12;6.75;;;2.38;;
81834;SDS011;71272;52.166;4.498;2023-09-19T02:17:40;6.10;;;1.60;;
81834;SDS011;71272;52.166;4.498;2023-09-19T02:20:07;8.07;;;1.35;;
81834;SDS011;71272;52.166;4.498;2023-09-19T02:22:35;9.77;;;1.80;;
81834;SDS011;71272;52.166;4.498;2023-09-19T02:25:00;7.75;;;1.83;;
81834;SDS011;71272;52.166;4.498;2023-09-19T02:27:26;6.95;;;1.63;;
81834;SDS011;71272;52.166;4.498;2023-09-19T02:29:53;4.53;;;1.50;;
81834;SDS011;71272;52.166;4.498;2023-09-19T02:32:25;7.68;;;1.77;;
81834;SDS011;71272;52.166;4.498;2023-09-19T02:34:50;4.72;;;1.65;;
81834;SDS011;71272;52.166;4.498;2023-09-19T02:37:18;6.90;;;1.40;;
81834;SDS011;71272;52.166;4.498;2023-09-19T02:39:46;11.00;;;1.52;;
81834;SDS011;71272;52.166;4.498;2023-09-19T02:42:12;6.68;;;1.65;;
81834;SDS011;71272;52.166;4.498;2023-09-19T02:44:40;7.22;;;1.80;;
81834;SDS011;71272;52.166;4.498;2023-09-19T02:47:06;7.43;;;1.92;;
81834;SDS011;71272;52.166;4.498;2023-09-19T02:49:31;9.13;;;1.30;;
81834;SDS011;71272;52.166;4.498;2023-09-19T02:51:57;5.82;;;1.95;;
81834;SDS011;71272;52.166;4.498;2023-09-19T02:54:25;5.75;;;1.38;;
81834;SDS011;71272;52.166;4.498;2023-09-19T02:56:51;7.20;;;1.23;;
81834;SDS011;71272;52.166;4.498;2023-09-19T02:59:16;6.70;;;1.37;;
81834;SDS011;71272;52.166;4.498;2023-09-19T03:01:44;6.22;;;1.30;;
81834;SDS011;71272;52.166;4.498;2023-09-19T03:04:13;7.85;;;1.40;;
81834;SDS011;71272;52.166;4.498;2023-09-19T03:06:44;4.68;;;1.75;;
81834;SDS011;71272;52.166;4.498;2023-09-19T03:09:10;6.00;;;1.38;;
81834;SDS011;71272;52.166;4.498;2023-09-19T03:11:36;3.03;;;1.30;;
81834;SDS011;71272;52.166;4.498;2023-09-19T03:14:02;9.27;;;2.05;;
81834;SDS011;71272;52.166;4.498;2023-09-19T03:16:28;4.47;;;1.27;;
81834;SDS011;71272;52.166;4.498;2023-09-19T03:18:53;4.55;;;1.60;;
81834;SDS011;71272;52.166;4.498;2023-09-19T03:21:18;4.70;;;1.20;;
81834;SDS011;71272;52.166;4.498;2023-09-19T03:27:06;7.00;;;1.67;;
81834;SDS011;71272;52.166;4.498;2023-09-19T03:29:39;9.80;;;1.77;;
81834;SDS011;71272;52.166;4.498;2023-09-19T03:32:08;7.10;;;2.05;;
81834;SDS011;71272;52.166;4.498;2023-09-19T03:34:37;12.57;;;1.65;;
81834;SDS011;71272;52.166;4.498;2023-09-19T03:37:08;6.45;;;1.58;;
81834;SDS011;71272;52.166;4.498;2023-09-19T03:39:34;6.97;;;1.27;;
81834;SDS011;71272;52.166;4.498;2023-09-19T03:42:00;8.85;;;1.60;;
81834;SDS011;71272;52.166;4.498;2023-09-19T03:47:51;4.40;;;1.10;;
81834;SDS011;71272;52.166;4.498;2023-09-19T03:50:16;8.23;;;1.58;;
81834;SDS011;71272;52.166;4.498;2023-09-19T03:56:04;7.50;;;1.50;;
81834;SDS011;71272;52.166;4.498;2023-09-19T04:01:52;5.32;;;1.35;;
81834;SDS011;71272;52.166;4.498;2023-09-19T04:04:22;5.93;;;1.25;;
81834;SDS011;71272;52.166;4.498;2023-09-19T04:10:11;6.68;;;1.10;;
81834;SDS011;71272;52.166;4.498;2023-09-19T04:12:37;5.88;;;1.23;;
81834;SDS011;71272;52.166;4.498;2023-09-19T04:15:06;3.63;;;0.98;;
81834;SDS011;71272;52.166;4.498;2023-09-19T04:17:33;7.07;;;1.38;;
81834;SDS011;71272;52.166;4.498;2023-09-19T04:19:59;6.10;;;1.30;;
81834;SDS011;71272;52.166;4.498;2023-09-19T04:25:46;10.57;;;1.42;;
81834;SDS011;71272;52.166;4.498;2023-09-19T04:28:12;3.47;;;1.27;;
81834;SDS011;71272;52.166;4.498;2023-09-19T04:33:59;9.07;;;1.30;;
81834;SDS011;71272;52.166;4.498;2023-09-19T04:36:30;7.20;;;1.30;;
81834;SDS011;71272;52.166;4.498;2023-09-19T04:38:55;4.83;;;1.33;;
81834;SDS011;71272;52.166;4.498;2023-09-19T04:41:21;7.18;;;1.38;;
81834;SDS011;71272;52.166;4.498;2023-09-19T04:43:47;7.05;;;1.33;;
81834;SDS011;71272;52.166;4.498;2023-09-19T04:46:14;4.45;;;1.70;;
81834;SDS011;71272;52.166;4.498;2023-09-19T04:48:40;6.65;;;1.65;;
81834;SDS011;71272;52.166;4.498;2023-09-19T04:51:06;8.90;;;2.25;;
81834;SDS011;71272;52.166;4.498;2023-09-19T04:53:32;8.63;;;1.85;;
81834;SDS011;71272;52.166;4.498;2023-09-19T04:55:57;9.02;;;1.50;;
81834;SDS011;71272;52.166;4.498;2023-09-19T04:58:23;7.30;;;1.13;;
81834;SDS011;71272;52.166;4.498;2023-09-19T05:00:49;5.43;;;1.30;;
81834;SDS011;71272;52.166;4.498;2023-09-19T05:03:16;7.50;;;1.23;;
81834;SDS011;71272;52.166;4.498;2023-09-19T05:05:42;6.85;;;1.52;;
81834;SDS011;71272;52.166;4.498;2023-09-19T05:08:07;8.23;;;1.60;;
81834;SDS011;71272;52.166;4.498;2023-09-19T05:10:34;8.32;;;1.38;;
81834;SDS011;71272;52.166;4.498;2023-09-19T05:13:03;8.95;;;1.50;;
81834;SDS011;71272;52.166;4.498;2023-09-19T05:15:32;5.65;;;1.67;;
81834;SDS011;71272;52.166;4.498;2023-09-19T05:17:58;5.97;;;1.30;;
81834;SDS011;71272;52.166;4.498;2023-09-19T05:23:07;11.68;;;1.52;;
81834;SDS011;71272;52.166;4.498;2023-09-19T05:25:34;8.32;;;1.70;;
81834;SDS011;71272;52.166;4.498;2023-09-19T05:28:08;7.70;;;1.75;;
81834;SDS011;71272;52.166;4.498;2023-09-19T05:30:35;9.73;;;1.75;;
81834;SDS011;71272;52.166;4.498;2023-09-19T05:33:04;5.45;;;1.65;;
81834;SDS011;71272;52.166;4.498;2023-09-19T05:35:30;9.45;;;1.67;;
81834;SDS011;71272;52.166;4.498;2023-09-19T05:37:56;6.75;;;1.65;;
81834;SDS011;71272;52.166;4.498;2023-09-19T05:40:23;8.07;;;1.58;;
81834;SDS011;71272;52.166;4.498;2023-09-19T05:42:53;11.32;;;1.77;;
81834;SDS011;71272;52.166;4.498;2023-09-19T05:45:18;9.43;;;1.67;;
81834;SDS011;71272;52.166;4.498;2023-09-19T05:47:51;8.30;;;1.55;;
81834;SDS011;71272;52.166;4.498;2023-09-19T05:50:20;11.93;;;1.73;;
81834;SDS011;71272;52.166;4.498;2023-09-19T05:52:52;11.88;;;2.80;;
81834;SDS011;71272;52.166;4.498;2023-09-19T05:55:18;8.07;;;1.55;;
81834;SDS011;71272;52.166;4.498;2023-09-19T05:57:49;9.40;;;3.33;;
81834;SDS011;71272;52.166;4.498;2023-09-19T06:00:15;8.13;;;1.60;;
81834;SDS011;71272;52.166;4.498;2023-09-19T06:02:43;21.95;;;2.10;;
81834;SDS011;71272;52.166;4.498;2023-09-19T06:05:09;9.00;;;1.80;;
81834;SDS011;71272;52.166;4.498;2023-09-19T06:07:36;11.77;;;1.73;;
81834;SDS011;71272;52.166;4.498;2023-09-19T06:10:05;14.10;;;1.67;;
81834;SDS011;71272;52.166;4.498;2023-09-19T06:12:33;12.38;;;1.70;;
81834;SDS011;71272;52.166;4.498;2023-09-19T06:15:05;8.65;;;2.00;;
81834;SDS011;71272;52.166;4.498;2023-09-19T06:17:33;10.23;;;1.95;;
81834;SDS011;71272;52.166;4.498;2023-09-19T06:20:04;8.07;;;1.60;;
81834;SDS011;71272;52.166;4.498;2023-09-19T06:22:35;8.18;;;1.30;;
81834;SDS011;71272;52.166;4.498;2023-09-19T06:25:06;11.13;;;1.85;;
81834;SDS011;71272;52.166;4.498;2023-09-19T06:27:34;10.68;;;1.92;;
81834;SDS011;71272;52.166;4.498;2023-09-19T06:30:01;19.10;;;2.70;;
81834;SDS011;71272;52.166;4.498;2023-09-19T06:32:27;7.15;;;1.95;;
81834;SDS011;71272;52.166;4.498;2023-09-19T06:34:53;13.77;;;2.40;;
81834;SDS011;71272;52.166;4.498;2023-09-19T06:37:21;5.85;;;1.73;;
81834;SDS011;71272;52.166;4.498;2023-09-19T06:42:14;10.05;;;2.10;;
81834;SDS011;71272;52.166;4.498;2023-09-19T06:44:43;7.35;;;2.00;;
81834;SDS011;71272;52.166;4.498;2023-09-19T06:47:08;12.07;;;2.72;;
81834;SDS011;71272;52.166;4.498;2023-09-19T06:49:35;11.85;;;2.03;;
81834;SDS011;71272;52.166;4.498;2023-09-19T06:52:01;6.80;;;1.40;;
81834;SDS011;71272;52.166;4.498;2023-09-19T06:54:27;8.13;;;2.33;;
81834;SDS011;71272;52.166;4.498;2023-09-19T06:56:56;14.43;;;1.88;;
81834;SDS011;71272;52.166;4.498;2023-09-19T06:59:23;9.88;;;3.08;;
81834;SDS011;71272;52.166;4.498;2023-09-19T07:01:49;10.75;;;1.75;;
81834;SDS011;71272;52.166;4.498;2023-09-19T07:04:15;11.30;;;2.08;;
81834;SDS011;71272;52.166;4.498;2023-09-19T07:06:41;9.05;;;2.10;;
81834;SDS011;71272;52.166;4.498;2023-09-19T07:09:08;13.00;;;2.50;;
81834;SDS011;71272;52.166;4.498;2023-09-19T07:11:35;9.75;;;1.58;;
81834;SDS011;71272;52.166;4.498;2023-09-19T07:14:02;9.18;;;1.90;;
81834;SDS011;71272;52.166;4.498;2023-09-19T07:16:30;9.27;;;1.90;;
81834;SDS011;71272;52.166;4.498;2023-09-19T07:22:20;11.10;;;1.80;;
81834;SDS011;71272;52.166;4.498;2023-09-19T07:24:45;13.20;;;2.25;;
81834;SDS011;71272;52.166;4.498;2023-09-19T07:27:11;9.98;;;2.40;;
81834;SDS011;71272;52.166;4.498;2023-09-19T07:29:41;15.52;;;2.58;;
81834;SDS011;71272;52.166;4.498;2023-09-19T07:32:06;7.70;;;1.90;;
81834;SDS011;71272;52.166;4.498;2023-09-19T07:34:33;6.38;;;1.38;;
81834;SDS011;71272;52.166;4.498;2023-09-19T07:36:58;15.15;;;2.20;;
81834;SDS011;71272;52.166;4.498;2023-09-19T07:39:24;11.75;;;3.50;;
81834;SDS011;71272;52.166;4.498;2023-09-19T07:41:49;11.25;;;1.92;;
81834;SDS011;71272;52.166;4.498;2023-09-19T07:46:42;10.48;;;3.20;;
81834;SDS011;71272;52.166;4.498;2023-09-19T07:49:09;9.77;;;2.30;;
81834;SDS011;71272;52.166;4.498;2023-09-19T07:51:35;7.25;;;1.75;;
81834;SDS011;71272;52.166;4.498;2023-09-19T07:54:01;8.98;;;2.10;;
81834;SDS011;71272;52.166;4.498;2023-09-19T07:56:38;10.82;;;2.70;;
81834;SDS011;71272;52.166;4.498;2023-09-19T07:59:06;10.63;;;2.17;;
81834;SDS011;71272;52.166;4.498;2023-09-19T08:01:33;16.65;;;2.75;;
81834;SDS011;71272;52.166;4.498;2023-09-19T08:04:10;11.05;;;2.92;;
81834;SDS011;71272;52.166;4.498;2023-09-19T08:06:37;12.48;;;2.55;;
81834;SDS011;71272;52.166;4.498;2023-09-19T08:09:04;10.68;;;2.10;;
81834;SDS011;71272;52.166;4.498;2023-09-19T08:11:32;10.23;;;1.70;;
81834;SDS011;71272;52.166;4.498;2023-09-19T08:13:59;11.02;;;2.63;;
81834;SDS011;71272;52.166;4.498;2023-09-19T08:16:25;17.20;;;2.75;;
81834;SDS011;71272;52.166;4.498;2023-09-19T08:18:50;7.78;;;2.47;;
81834;SDS011;71272;52.166;4.498;2023-09-19T08:21:20;8.82;;;1.98;;
81834;SDS011;71272;52.166;4.498;2023-09-19T08:23:47;9.25;;;2.42;;
81834;SDS011;71272;52.166;4.498;2023-09-19T08:26:12;13.57;;;2.88;;
81834;SDS011;71272;52.166;4.498;2023-09-19T08:28:41;7.88;;;1.90;;
81834;SDS011;71272;52.166;4.498;2023-09-19T08:31:09;8.18;;;2.10;;
81834;SDS011;71272;52.166;4.498;2023-09-19T08:33:38;13.07;;;3.10;;
81834;SDS011;71272;52.166;4.498;2023-09-19T08:36:05;10.77;;;1.95;;
81834;SDS011;71272;52.166;4.498;2023-09-19T08:38:34;10.43;;;3.30;;
81834;SDS011;71272;52.166;4.498;2023-09-19T08:41:04;11.50;;;2.50;;
81834;SDS011;71272;52.166;4.498;2023-09-19T08:43:32;12.77;;;2.42;;
81834;SDS011;71272;52.166;4.498;2023-09-19T08:46:04;13.85;;;2.22;;
81834;SDS011;71272;52.166;4.498;2023-09-19T08:48:34;9.65;;;2.47;;
81834;SDS011;71272;52.166;4.498;2023-09-19T08:51:06;10.95;;;2.72;;
81834;SDS011;71272;52.166;4.498;2023-09-19T08:54:03;9.02;;;2.25;;
81834;SDS011;71272;52.166;4.498;2023-09-19T08:56:36;14.25;;;2.80;;
81834;SDS011;71272;52.166;4.498;2023-09-19T08:59:05;4.65;;;1.60;;
81834;SDS011;71272;52.166;4.498;2023-09-19T09:01:49;12.60;;;2.30;;
81834;SDS011;71272;52.166;4.498;2023-09-19T09:04:54;15.93;;;2.25;;
81834;SDS011;71272;52.166;4.498;2023-09-19T09:07:36;11.00;;;3.03;;
81834;SDS011;71272;52.166;4.498;2023-09-19T09:10:20;9.85;;;2.08;;
81834;SDS011;71272;52.166;4.498;2023-09-19T09:13:11;14.00;;;3.42;;
81834;SDS011;71272;52.166;4.498;2023-09-19T09:15:39;9.55;;;2.00;;
81834;SDS011;71272;52.166;4.498;2023-09-19T09:18:06;12.77;;;2.85;;
81834;SDS011;71272;52.166;4.498;2023-09-19T09:20:34;9.13;;;1.70;;
81834;SDS011;71272;52.166;4.498;2023-09-19T09:23:01;10.65;;;1.73;;
81834;SDS011;71272;52.166;4.498;2023-09-19T09:28:25;14.88;;;2.30;;
81834;SDS011;71272;52.166;4.498;2023-09-19T09:30:57;9.55;;;2.80;;
81834;SDS011;71272;52.166;4.498;2023-09-19T09:33:23;14.05;;;2.65;;
81834;SDS011;71272;52.166;4.498;2023-09-19T09:38:47;11.98;;;2.53;;
81834;SDS011;71272;52.166;4.498;2023-09-19T09:41:18;11.13;;;2.92;;
81834;SDS011;71272;52.166;4.498;2023-09-19T09:43:53;7.82;;;1.60;;
81834;SDS011;71272;52.166;4.498;2023-09-19T09:46:19;13.55;;;2.38;;
81834;SDS011;71272;52.166;4.498;2023-09-19T09:51:40;7.78;;;1.73;;
81834;SDS011;71272;52.166;4.498;2023-09-19T09:54:16;8.07;;;1.65;;
81834;SDS011;71272;52.166;4.498;2023-09-19T09:57:01;13.73;;;1.95;;
81834;SDS011;71272;52.166;4.498;2023-09-19T10:39:15;9.30;;;2.05;;
81834;SDS011;71272;52.166;4.498;2023-09-19T10:41:47;7.05;;;2.05;;
81834;SDS011;71272;52.166;4.498;2023-09-19T10:44:25;8.75;;;2.47;;
81834;SDS011;71272;52.166;4.498;2023-09-19T10:46:54;10.55;;;2.00;;
81834;SDS011;71272;52.166;4.498;2023-09-19T10:49:22;9.50;;;1.65;;
81834;SDS011;71272;52.166;4.498;2023-09-19T10:51:54;8.38;;;1.83;;
81834;SDS011;71272;52.166;4.498;2023-09-19T10:54:26;7.72;;;1.83;;
81834;SDS011;71272;52.166;4.498;2023-09-19T10:56:57;11.73;;;1.63;;
81834;SDS011;71272;52.166;4.498;2023-09-19T10:59:24;9.82;;;1.88;;
81834;SDS011;71272;52.166;4.498;2023-09-19T11:02:00;6.10;;;2.03;;
81834;SDS011;71272;52.166;4.498;2023-09-19T11:04:45;7.13;;;1.33;;
81834;SDS011;71272;52.166;4.498;2023-09-19T11:07:14;6.70;;;1.33;;
81834;SDS011;71272;52.166;4.498;2023-09-19T11:09:50;12.98;;;1.73;;
81834;SDS011;71272;52.166;4.498;2023-09-19T11:16:02;20.73;;;1.95;;
81834;SDS011;71272;52.166;4.498;2023-09-19T11:26:48;12.55;;;2.05;;
81834;SDS011;71272;52.166;4.498;2023-09-19T11:29:32;5.25;;;1.60;;
81834;SDS011;71272;52.166;4.498;2023-09-19T11:31:58;6.40;;;1.23;;
81834;SDS011;71272;52.166;4.498;2023-09-19T11:34:38;9.30;;;2.10;;
81834;SDS011;71272;52.166;4.498;2023-09-19T11:40:26;4.40;;;1.35;;
81834;SDS011;71272;52.166;4.498;2023-09-19T11:42:47;8.35;;;1.30;;
81834;SDS011;71272;52.166;4.498;2023-09-19T11:48:15;8.00;;;1.63;;
81834;SDS011;71272;52.166;4.498;2023-09-19T11:50:43;5.90;;;1.55;;
81834;SDS011;71272;52.166;4.498;2023-09-19T11:53:12;4.90;;;1.30;;
81834;SDS011;71272;52.166;4.498;2023-09-19T11:58:10;3.53;;;1.23;;
81834;SDS011;71272;52.166;4.498;2023-09-19T12:00:39;9.23;;;1.38;;
81834;SDS011;71272;52.166;4.498;2023-09-19T12:03:12;8.82;;;1.58;;
81834;SDS011;71272;52.166;4.498;2023-09-19T12:05:42;2.88;;;1.15;;
81834;SDS011;71272;52.166;4.498;2023-09-19T12:08:08;8.15;;;1.65;;
81834;SDS011;71272;52.166;4.498;2023-09-19T12:10:50;6.35;;;1.35;;
81834;SDS011;71272;52.166;4.498;2023-09-19T12:13:23;5.10;;;1.50;;
81834;SDS011;71272;52.166;4.498;2023-09-19T12:15:55;7.70;;;1.65;;
81834;SDS011;71272;52.166;4.498;2023-09-19T12:18:26;9.25;;;2.30;;
81834;SDS011;71272;52.166;4.498;2023-09-19T12:20:55;7.50;;;1.83;;
81834;SDS011;71272;52.166;4.498;2023-09-19T12:23:25;5.68;;;1.27;;
81834;SDS011;71272;52.166;4.498;2023-09-19T12:25:51;6.20;;;1.73;;
81834;SDS011;71272;52.166;4.498;2023-09-19T12:28:22;7.57;;;1.55;;
81834;SDS011;71272;52.166;4.498;2023-09-19T12:31:06;4.13;;;1.30;;
81834;SDS011;71272;52.166;4.498;2023-09-19T12:36:00;5.95;;;1.73;;
81834;SDS011;71272;52.166;4.498;2023-09-19T12:38:28;7.10;;;1.75;;
81834;SDS011;71272;52.166;4.498;2023-09-19T12:40:57;6.80;;;1.77;;
81834;SDS011;71272;52.166;4.498;2023-09-19T12:43:25;5.05;;;1.60;;
81834;SDS011;71272;52.166;4.498;2023-09-19T12:45:52;5.75;;;1.80;;
81834;SDS011;71272;52.166;4.498;2023-09-19T12:56:16;6.05;;;2.00;;
81834;SDS011;71272;52.166;4.498;2023-09-19T12:58:53;7.47;;;1.88;;
81834;SDS011;71272;52.166;4.498;2023-09-19T13:01:19;10.98;;;2.35;;
81834;SDS011;71272;52.166;4.498;2023-09-19T13:04:09;8.50;;;1.50;;
81834;SDS011;71272;52.166;4.498;2023-09-19T13:06:37;7.85;;;1.75;;
81834;SDS011;71272;52.166;4.498;2023-09-19T13:12:37;4.65;;;1.58;;
81834;SDS011;71272;52.166;4.498;2023-09-19T13:15:08;3.92;;;1.35;;
81834;SDS011;71272;52.166;4.498;2023-09-19T13:17:42;4.40;;;1.80;;
81834;SDS011;71272;52.166;4.498;2023-09-19T13:20:27;5.93;;;1.40;;
81834;SDS011;71272;52.166;4.498;2023-09-19T13:22:55;8.25;;;1.80;;
81834;SDS011;71272;52.166;4.498;2023-09-19T13:25:25;7.35;;;1.90;;
81834;SDS011;71272;52.166;4.498;2023-09-19T13:27:55;6.18;;;1.70;;
81834;SDS011;71272;52.166;4.498;2023-09-19T13:30:24;7.82;;;1.52;;
81834;SDS011;71272;52.166;4.498;2023-09-19T13:33:10;6.43;;;1.88;;
81834;SDS011;71272;52.166;4.498;2023-09-19T13:35:39;9.13;;;1.75;;
81834;SDS011;71272;52.166;4.498;2023-09-19T13:38:06;7.57;;;1.83;;
81834;SDS011;71272;52.166;4.498;2023-09-19T13:40:36;10.60;;;3.58;;
81834;SDS011;71272;52.166;4.498;2023-09-19T13:43:06;7.53;;;2.45;;
81834;SDS011;71272;52.166;4.498;2023-09-19T13:45:33;9.43;;;2.25;;
81834;SDS011;71272;52.166;4.498;2023-09-19T13:47:59;11.02;;;2.03;;
81834;SDS011;71272;52.166;4.498;2023-09-19T13:50:24;8.40;;;1.98;;
81834;SDS011;71272;52.166;4.498;2023-09-19T13:52:54;9.45;;;2.35;;
81834;SDS011;71272;52.166;4.498;2023-09-19T13:57:46;6.30;;;2.60;;
81834;SDS011;71272;52.166;4.498;2023-09-19T14:00:20;13.68;;;2.58;;
81834;SDS011;71272;52.166;4.498;2023-09-19T14:02:47;10.57;;;2.03;;
81834;SDS011;71272;52.166;4.498;2023-09-19T14:05:14;12.70;;;3.08;;
81834;SDS011;71272;52.166;4.498;2023-09-19T14:31:45;5.45;;;2.00;;
81834;SDS011;71272;52.166;4.498;2023-09-19T14:34:10;10.93;;;2.38;;
81834;SDS011;71272;52.166;4.498;2023-09-19T14:36:36;15.45;;;4.32;;
81834;SDS011;71272;52.166;4.498;2023-09-19T14:39:03;10.38;;;2.55;;
81834;SDS011;71272;52.166;4.498;2023-09-19T14:41:33;10.77;;;2.47;;
81834;SDS011;71272;52.166;4.498;2023-09-19T14:43:59;11.35;;;2.13;;
81834;SDS011;71272;52.166;4.498;2023-09-19T14:46:38;16.98;;;2.70;;
81834;SDS011;71272;52.166;4.498;2023-09-19T14:49:04;8.43;;;2.10;;
81834;SDS011;71272;52.166;4.498;2023-09-19T14:51:29;8.55;;;2.25;;
81834;SDS011;71272;52.166;4.498;2023-09-19T14:53:56;12.98;;;2.30;;
81834;SDS011;71272;52.166;4.498;2023-09-19T14:56:26;17.50;;;2.40;;
81834;SDS011;71272;52.166;4.498;2023-09-19T14:58:59;15.02;;;2.35;;
81834;SDS011;71272;52.166;4.498;2023-09-19T15:01:37;12.55;;;2.70;;
81834;SDS011;71272;52.166;4.498;2023-09-19T15:04:03;10.43;;;2.85;;
81834;SDS011;71272;52.166;4.498;2023-09-19T15:06:33;9.65;;;2.63;;
81834;SDS011;71272;52.166;4.498;2023-09-19T15:08:59;8.07;;;2.50;;
81834;SDS011;71272;52.166;4.498;2023-09-19T15:11:25;16.95;;;2.92;;
81834;SDS011;71272;52.166;4.498;2023-09-19T15:13:51;8.13;;;2.70;;
81834;SDS011;71272;52.166;4.498;2023-09-19T15:16:17;9.45;;;2.40;;
81834;SDS011;71272;52.166;4.498;2023-09-19T15:18:45;9.07;;;2.72;;
81834;SDS011;71272;52.166;4.498;2023-09-19T15:21:13;14.88;;;3.17;;
81834;SDS011;71272;52.166;4.498;2023-09-19T15:23:40;8.77;;;2.30;;
81834;SDS011;71272;52.166;4.498;2023-09-19T15:26:09;10.43;;;2.30;;
81834;SDS011;71272;52.166;4.498;2023-09-19T15:28:39;15.88;;;3.13;;
81834;SDS011;71272;52.166;4.498;2023-09-19T15:31:12;10.05;;;2.83;;
81834;SDS011;71272;52.166;4.498;2023-09-19T15:37:00;7.82;;;2.40;;
81834;SDS011;71272;52.166;4.498;2023-09-19T15:39:35;13.95;;;3.15;;
81834;SDS011;71272;52.166;4.498;2023-09-19T15:42:02;14.18;;;2.47;;
81834;SDS011;71272;52.166;4.498;2023-09-19T15:44:39;7.80;;;2.10;;
81834;SDS011;71272;52.166;4.498;2023-09-19T15:47:15;14.35;;;3.88;;
81834;SDS011;71272;52.166;4.498;2023-09-19T15:49:41;11.82;;;2.65;;
81834;SDS011;71272;52.166;4.498;2023-09-19T15:57:06;12.38;;;3.13;;
81834;SDS011;71272;52.166;4.498;2023-09-19T16:02:54;14.73;;;2.58;;
81834;SDS011;71272;52.166;4.498;2023-09-19T16:08:07;13.05;;;2.90;;
81834;SDS011;71272;52.166;4.498;2023-09-19T16:10:35;15.38;;;4.18;;
81834;SDS011;71272;52.166;4.498;2023-09-19T16:13:03;11.50;;;2.67;;
81834;SDS011;71272;52.166;4.498;2023-09-19T16:15:30;13.68;;;2.53;;
81834;SDS011;71272;52.166;4.498;2023-09-19T16:17:55;8.65;;;2.25;;
81834;SDS011;71272;52.166;4.498;2023-09-19T16:20:21;9.53;;;2.30;;
81834;SDS011;71272;52.166;4.498;2023-09-19T16:22:48;12.35;;;2.92;;
81834;SDS011;71272;52.166;4.498;2023-09-19T16:25:16;26.50;;;6.00;;
81834;SDS011;71272;52.166;4.498;2023-09-19T16:27:42;7.53;;;2.50;;
81834;SDS011;71272;52.166;4.498;2023-09-19T16:30:08;9.40;;;2.13;;
81834;SDS011;71272;52.166;4.498;2023-09-19T16:32:37;10.15;;;2.78;;
81834;SDS011;71272;52.166;4.498;2023-09-19T16:35:02;8.73;;;2.70;;
81834;SDS011;71272;52.166;4.498;2023-09-19T16:37:32;9.38;;;2.33;;
81834;SDS011;71272;52.166;4.498;2023-09-19T16:40:06;12.70;;;3.45;;
81834;SDS011;71272;52.166;4.498;2023-09-19T16:42:34;11.90;;;2.63;;
81834;SDS011;71272;52.166;4.498;2023-09-19T16:45:00;13.75;;;3.15;;
81834;SDS011;71272;52.166;4.498;2023-09-19T16:47:26;13.32;;;2.97;;
81834;SDS011;71272;52.166;4.498;2023-09-19T16:49:51;13.57;;;3.17;;
81834;SDS011;71272;52.166;4.498;2023-09-19T16:52:18;16.58;;;3.03;;
81834;SDS011;71272;52.166;4.498;2023-09-19T16:54:43;14.98;;;3.65;;
81834;SDS011;71272;52.166;4.498;2023-09-19T16:57:10;11.80;;;3.67;;
81834;SDS011;71272;52.166;4.498;2023-09-19T16:59:36;12.35;;;4.90;;
81834;SDS011;71272;52.166;4.498;2023-09-19T17:02:02;6.97;;;2.80;;
81834;SDS011;71272;52.166;4.498;2023-09-19T17:04:28;14.25;;;2.88;;
81834;SDS011;71272;52.166;4.498;2023-09-19T17:06:56;16.20;;;3.45;;
81834;SDS011;71272;52.166;4.498;2023-09-19T17:12:47;13.30;;;4.10;;
81834;SDS011;71272;52.166;4.498;2023-09-19T17:15:14;12.60;;;2.97;;
81834;SDS011;71272;52.166;4.498;2023-09-19T17:17:39;10.45;;;3.30;;
81834;SDS011;71272;52.166;4.498;2023-09-19T17:23:27;9.60;;;3.13;;
81834;SDS011;71272;52.166;4.498;2023-09-19T19:52:33;11.85;;;3.35;;
81834;SDS011;71272;52.166;4.498;2023-09-19T19:55:00;9.40;;;2.95;;
81834;SDS011;71272;52.166;4.498;2023-09-19T19:57:31;17.38;;;4.90;;
81834;SDS011;71272;52.166;4.498;2023-09-19T20:00:07;11.82;;;3.15;;
81834;SDS011;71272;52.166;4.498;2023-09-19T20:02:46;8.93;;;3.00;;
81834;SDS011;71272;52.166;4.498;2023-09-19T20:05:20;13.60;;;3.67;;
81834;SDS011;71272;52.166;4.498;2023-09-19T20:07:56;6.93;;;2.85;;
81834;SDS011;71272;52.166;4.498;2023-09-19T20:10:25;9.82;;;3.50;;
81834;SDS011;71272;52.166;4.498;2023-09-19T20:13:02;12.60;;;3.97;;
81834;SDS011;71272;52.166;4.498;2023-09-19T20:15:38;11.02;;;3.78;;
81834;SDS011;71272;52.166;4.498;2023-09-19T20:18:10;6.70;;;3.10;;
81834;SDS011;71272;52.166;4.498;2023-09-19T20:20:38;10.50;;;3.72;;
81834;SDS011;71272;52.166;4.498;2023-09-19T20:23:13;8.27;;;3.30;;